Airport View

Enter AWOS ICAO identifier for current METAR.

ex. KFNL

KBAC 171055Z AUTO 31013G19KT 10SM OVC017 M00/M02 A2998 RMK AO2

17 Nov 2019 10:58

Frequency: 118.725

Phone: 701-845-9117

Other Area AWOS: KJMS - KS32 - KGWR - K2D5

TAF KJMS 170521Z 1706/1806 31012G20KT P6SM OVC012 FM171900 28007KT P6SM OVC014 FM172000 28006KT P6SM OVC030 FM180300 18006KT P6SM BKN013 FM180500 19006KT P6SM BKN008